Irish Green, Utah
Current Conditions -  °F | °C
As of 8:55 AM on Friday 24 Oct 2014 (Local Time) from KBDG Reporting Station
Clear Clear  
Wind Chill: 54°   Ceiling: Unl
Heat Index: 54°   Visibility: 10mi
Dew Point: 33°   Wind: 0mph
Humidity: 45%   Direction: NA
Pressure: 30.43"   Gusts: NA
Location:  37.6208°N, 109.479°W
Report Text: KBDG 241455Z AUTO 00000KT 10SM CLR 12/01 A3043 RMK AO1 T01210006
Loading
Personal Weather Stations






























Interactive Weather Map
Tropical Storm Tracking
New forecast layout! Learn more

10-Day Weather Forecast

Advertisements
Track Severe Weather on mobile